sensor_id;sensor_type;location;lat;lon;timestamp;P1;durP1;ratioP1;P2;durP2;ratioP2
19080;SDS011;9673;50.868;3.152;2023-09-08T00:02:06;20.57;;;14.37;;
19080;SDS011;9673;50.868;3.152;2023-09-08T00:05:14;27.97;;;15.10;;
19080;SDS011;9673;50.868;3.152;2023-09-08T00:08:21;22.67;;;15.80;;
19080;SDS011;9673;50.868;3.152;2023-09-08T00:11:28;24.57;;;16.97;;
19080;SDS011;9673;50.868;3.152;2023-09-08T00:14:34;21.73;;;13.90;;
19080;SDS011;9673;50.868;3.152;2023-09-08T00:17:40;19.30;;;13.13;;
19080;SDS011;9673;50.868;3.152;2023-09-08T00:21:41;20.83;;;12.87;;
19080;SDS011;9673;50.868;3.152;2023-09-08T00:24:48;21.20;;;12.93;;
19080;SDS011;9673;50.868;3.152;2023-09-08T00:27:54;17.30;;;14.00;;
19080;SDS011;9673;50.868;3.152;2023-09-08T00:31:01;19.00;;;13.87;;
19080;SDS011;9673;50.868;3.152;2023-09-08T00:34:09;20.13;;;14.73;;
19080;SDS011;9673;50.868;3.152;2023-09-08T00:37:17;20.63;;;12.83;;
19080;SDS011;9673;50.868;3.152;2023-09-08T00:40:23;21.30;;;13.67;;
19080;SDS011;9673;50.868;3.152;2023-09-08T00:43:30;18.73;;;13.50;;
19080;SDS011;9673;50.868;3.152;2023-09-08T00:46:37;16.13;;;11.77;;
19080;SDS011;9673;50.868;3.152;2023-09-08T00:49:44;22.63;;;13.23;;
19080;SDS011;9673;50.868;3.152;2023-09-08T00:52:52;23.43;;;12.10;;
19080;SDS011;9673;50.868;3.152;2023-09-08T00:55:59;19.93;;;13.20;;
19080;SDS011;9673;50.868;3.152;2023-09-08T00:59:06;16.63;;;12.20;;
19080;SDS011;9673;50.868;3.152;2023-09-08T01:02:14;16.67;;;11.73;;
19080;SDS011;9673;50.868;3.152;2023-09-08T01:05:20;18.37;;;13.30;;
19080;SDS011;9673;50.868;3.152;2023-09-08T01:08:28;17.93;;;12.63;;
19080;SDS011;9673;50.868;3.152;2023-09-08T01:11:35;16.20;;;11.77;;
19080;SDS011;9673;50.868;3.152;2023-09-08T01:14:42;16.20;;;11.47;;
19080;SDS011;9673;50.868;3.152;2023-09-08T01:17:49;16.10;;;10.03;;
19080;SDS011;9673;50.868;3.152;2023-09-08T01:21:03;14.90;;;9.07;;
19080;SDS011;9673;50.868;3.152;2023-09-08T01:25:29;15.33;;;8.20;;
19080;SDS011;9673;50.868;3.152;2023-09-08T01:29:31;16.73;;;12.47;;
19080;SDS011;9673;50.868;3.152;2023-09-08T01:32:39;20.13;;;13.37;;
19080;SDS011;9673;50.868;3.152;2023-09-08T01:35:46;16.43;;;12.17;;
19080;SDS011;9673;50.868;3.152;2023-09-08T01:38:53;16.27;;;12.03;;
19080;SDS011;9673;50.868;3.152;2023-09-08T01:42:04;17.00;;;12.27;;
19080;SDS011;9673;50.868;3.152;2023-09-08T01:45:11;17.63;;;12.17;;
19080;SDS011;9673;50.868;3.152;2023-09-08T01:48:18;16.33;;;12.80;;
19080;SDS011;9673;50.868;3.152;2023-09-08T01:51:24;17.93;;;13.97;;
19080;SDS011;9673;50.868;3.152;2023-09-08T01:54:31;18.43;;;14.27;;
19080;SDS011;9673;50.868;3.152;2023-09-08T01:57:39;16.47;;;13.03;;
19080;SDS011;9673;50.868;3.152;2023-09-08T02:00:47;15.80;;;14.10;;
19080;SDS011;9673;50.868;3.152;2023-09-08T02:03:55;19.90;;;14.40;;
19080;SDS011;9673;50.868;3.152;2023-09-08T02:07:02;25.77;;;15.03;;
19080;SDS011;9673;50.868;3.152;2023-09-08T02:10:09;20.87;;;15.67;;
19080;SDS011;9673;50.868;3.152;2023-09-08T02:13:18;21.93;;;16.43;;
19080;SDS011;9673;50.868;3.152;2023-09-08T02:16:24;21.87;;;15.20;;
19080;SDS011;9673;50.868;3.152;2023-09-08T02:19:32;20.03;;;14.47;;
19080;SDS011;9673;50.868;3.152;2023-09-08T02:22:38;18.23;;;13.30;;
19080;SDS011;9673;50.868;3.152;2023-09-08T02:25:45;22.77;;;13.80;;
19080;SDS011;9673;50.868;3.152;2023-09-08T02:28:53;17.03;;;13.23;;
19080;SDS011;9673;50.868;3.152;2023-09-08T02:32:46;19.10;;;11.47;;
19080;SDS011;9673;50.868;3.152;2023-09-08T02:35:53;13.77;;;10.70;;
19080;SDS011;9673;50.868;3.152;2023-09-08T02:39:00;14.67;;;11.57;;
19080;SDS011;9673;50.868;3.152;2023-09-08T02:42:06;16.07;;;12.23;;
19080;SDS011;9673;50.868;3.152;2023-09-08T02:46:06;26.37;;;12.43;;
19080;SDS011;9673;50.868;3.152;2023-09-08T02:50:06;19.87;;;12.97;;
19080;SDS011;9673;50.868;3.152;2023-09-08T02:54:05;15.80;;;12.73;;
19080;SDS011;9673;50.868;3.152;2023-09-08T02:58:04;17.33;;;11.40;;
19080;SDS011;9673;50.868;3.152;2023-09-08T03:02:05;16.13;;;12.27;;
19080;SDS011;9673;50.868;3.152;2023-09-08T03:06:04;14.53;;;11.57;;
19080;SDS011;9673;50.868;3.152;2023-09-08T03:10:04;21.63;;;13.40;;
19080;SDS011;9673;50.868;3.152;2023-09-08T03:14:04;22.63;;;14.77;;
19080;SDS011;9673;50.868;3.152;2023-09-08T03:18:05;21.97;;;14.70;;
19080;SDS011;9673;50.868;3.152;2023-09-08T03:22:04;14.67;;;11.70;;
19080;SDS011;9673;50.868;3.152;2023-09-08T03:25:11;14.43;;;9.17;;
19080;SDS011;9673;50.868;3.152;2023-09-08T03:28:20;13.27;;;9.53;;
19080;SDS011;9673;50.868;3.152;2023-09-08T03:31:26;12.63;;;10.30;;
19080;SDS011;9673;50.868;3.152;2023-09-08T03:34:35;9.83;;;8.83;;
19080;SDS011;9673;50.868;3.152;2023-09-08T03:37:45;15.67;;;10.03;;
19080;SDS011;9673;50.868;3.152;2023-09-08T03:40:51;11.80;;;10.03;;
19080;SDS011;9673;50.868;3.152;2023-09-08T03:43:58;12.63;;;9.80;;
19080;SDS011;9673;50.868;3.152;2023-09-08T03:47:04;10.17;;;8.47;;
19080;SDS011;9673;50.868;3.152;2023-09-08T03:50:13;14.13;;;10.57;;
19080;SDS011;9673;50.868;3.152;2023-09-08T03:53:20;14.87;;;11.57;;
19080;SDS011;9673;50.868;3.152;2023-09-08T03:56:26;17.30;;;12.97;;
19080;SDS011;9673;50.868;3.152;2023-09-08T03:59:33;15.93;;;13.60;;
19080;SDS011;9673;50.868;3.152;2023-09-08T04:02:40;16.17;;;13.27;;
19080;SDS011;9673;50.868;3.152;2023-09-08T04:05:48;22.40;;;15.13;;
19080;SDS011;9673;50.868;3.152;2023-09-08T04:08:55;16.40;;;13.53;;
19080;SDS011;9673;50.868;3.152;2023-09-08T04:12:01;22.37;;;15.27;;
19080;SDS011;9673;50.868;3.152;2023-09-08T04:15:09;18.20;;;12.40;;
19080;SDS011;9673;50.868;3.152;2023-09-08T04:18:16;25.00;;;15.90;;
19080;SDS011;9673;50.868;3.152;2023-09-08T04:21:24;25.50;;;18.73;;
19080;SDS011;9673;50.868;3.152;2023-09-08T04:24:34;29.80;;;18.23;;
19080;SDS011;9673;50.868;3.152;2023-09-08T04:27:41;27.37;;;18.80;;
19080;SDS011;9673;50.868;3.152;2023-09-08T04:30:49;25.37;;;17.87;;
19080;SDS011;9673;50.868;3.152;2023-09-08T04:33:55;22.00;;;16.30;;
19080;SDS011;9673;50.868;3.152;2023-09-08T04:37:03;19.87;;;14.30;;
19080;SDS011;9673;50.868;3.152;2023-09-08T04:40:10;21.93;;;14.10;;
19080;SDS011;9673;50.868;3.152;2023-09-08T04:43:17;19.93;;;15.10;;
19080;SDS011;9673;50.868;3.152;2023-09-08T04:46:23;22.53;;;16.63;;
19080;SDS011;9673;50.868;3.152;2023-09-08T04:49:30;22.83;;;16.43;;
19080;SDS011;9673;50.868;3.152;2023-09-08T04:52:38;25.53;;;16.70;;
19080;SDS011;9673;50.868;3.152;2023-09-08T04:55:45;28.03;;;18.00;;
19080;SDS011;9673;50.868;3.152;2023-09-08T04:58:55;23.07;;;18.37;;
19080;SDS011;9673;50.868;3.152;2023-09-08T05:02:02;22.83;;;17.40;;
19080;SDS011;9673;50.868;3.152;2023-09-08T05:05:25;29.63;;;19.30;;
19080;SDS011;9673;50.868;3.152;2023-09-08T05:08:33;29.20;;;19.53;;
19080;SDS011;9673;50.868;3.152;2023-09-08T05:11:43;24.33;;;18.63;;
19080;SDS011;9673;50.868;3.152;2023-09-08T05:14:50;28.10;;;18.90;;
19080;SDS011;9673;50.868;3.152;2023-09-08T05:18:01;26.93;;;18.43;;
19080;SDS011;9673;50.868;3.152;2023-09-08T05:21:08;31.43;;;18.67;;
19080;SDS011;9673;50.868;3.152;2023-09-08T05:24:16;25.90;;;18.10;;
19080;SDS011;9673;50.868;3.152;2023-09-08T05:27:25;26.70;;;17.97;;
19080;SDS011;9673;50.868;3.152;2023-09-08T05:30:32;28.70;;;18.33;;
19080;SDS011;9673;50.868;3.152;2023-09-08T05:33:38;31.60;;;18.27;;
19080;SDS011;9673;50.868;3.152;2023-09-08T05:36:45;29.17;;;19.10;;
19080;SDS011;9673;50.868;3.152;2023-09-08T05:39:53;25.80;;;17.17;;
19080;SDS011;9673;50.868;3.152;2023-09-08T05:42:59;31.00;;;18.27;;
19080;SDS011;9673;50.868;3.152;2023-09-08T05:46:07;27.87;;;17.43;;
19080;SDS011;9673;50.868;3.152;2023-09-08T05:50:06;30.37;;;18.47;;
19080;SDS011;9673;50.868;3.152;2023-09-08T05:53:53;29.60;;;18.90;;
19080;SDS011;9673;50.868;3.152;2023-09-08T05:57:01;30.03;;;19.90;;
19080;SDS011;9673;50.868;3.152;2023-09-08T06:00:08;24.83;;;17.80;;
19080;SDS011;9673;50.868;3.152;2023-09-08T06:03:18;28.00;;;19.37;;
19080;SDS011;9673;50.868;3.152;2023-09-08T06:06:25;28.93;;;17.60;;
19080;SDS011;9673;50.868;3.152;2023-09-08T06:09:33;29.70;;;18.43;;
19080;SDS011;9673;50.868;3.152;2023-09-08T06:12:41;25.73;;;18.33;;
19080;SDS011;9673;50.868;3.152;2023-09-08T06:15:48;25.47;;;18.20;;
19080;SDS011;9673;50.868;3.152;2023-09-08T06:18:54;27.93;;;17.87;;
19080;SDS011;9673;50.868;3.152;2023-09-08T06:22:01;24.93;;;17.07;;
19080;SDS011;9673;50.868;3.152;2023-09-08T06:25:27;32.20;;;18.50;;
19080;SDS011;9673;50.868;3.152;2023-09-08T06:29:24;24.73;;;18.17;;
19080;SDS011;9673;50.868;3.152;2023-09-08T06:33:24;24.33;;;17.57;;
19080;SDS011;9673;50.868;3.152;2023-09-08T06:37:02;25.37;;;17.73;;
19080;SDS011;9673;50.868;3.152;2023-09-08T06:40:10;33.33;;;19.67;;
19080;SDS011;9673;50.868;3.152;2023-09-08T06:43:17;30.93;;;18.13;;
19080;SDS011;9673;50.868;3.152;2023-09-08T06:46:38;37.43;;;19.27;;
19080;SDS011;9673;50.868;3.152;2023-09-08T06:49:45;37.63;;;19.50;;
19080;SDS011;9673;50.868;3.152;2023-09-08T06:52:52;29.67;;;19.70;;
19080;SDS011;9673;50.868;3.152;2023-09-08T06:56:00;29.53;;;19.00;;
19080;SDS011;9673;50.868;3.152;2023-09-08T06:59:07;28.87;;;18.63;;
19080;SDS011;9673;50.868;3.152;2023-09-08T07:02:16;28.73;;;17.97;;
19080;SDS011;9673;50.868;3.152;2023-09-08T07:05:22;28.53;;;18.00;;
19080;SDS011;9673;50.868;3.152;2023-09-08T07:08:29;32.27;;;19.40;;
19080;SDS011;9673;50.868;3.152;2023-09-08T07:11:36;33.30;;;18.10;;
19080;SDS011;9673;50.868;3.152;2023-09-08T07:14:42;30.27;;;18.43;;
19080;SDS011;9673;50.868;3.152;2023-09-08T07:17:50;37.90;;;19.17;;
19080;SDS011;9673;50.868;3.152;2023-09-08T07:20:58;26.97;;;16.83;;
19080;SDS011;9673;50.868;3.152;2023-09-08T07:24:05;32.63;;;17.80;;
19080;SDS011;9673;50.868;3.152;2023-09-08T07:27:13;32.77;;;17.37;;
19080;SDS011;9673;50.868;3.152;2023-09-08T07:30:20;27.43;;;17.90;;
19080;SDS011;9673;50.868;3.152;2023-09-08T07:33:28;31.47;;;17.63;;
19080;SDS011;9673;50.868;3.152;2023-09-08T07:36:35;38.47;;;18.87;;
19080;SDS011;9673;50.868;3.152;2023-09-08T07:39:42;29.43;;;18.00;;
19080;SDS011;9673;50.868;3.152;2023-09-08T07:42:48;32.10;;;17.20;;
19080;SDS011;9673;50.868;3.152;2023-09-08T07:45:56;25.52;;;16.63;;
19080;SDS011;9673;50.868;3.152;2023-09-08T07:49:04;31.77;;;16.25;;
19080;SDS011;9673;50.868;3.152;2023-09-08T07:52:10;24.60;;;15.02;;
19080;SDS011;9673;50.868;3.152;2023-09-08T07:55:16;20.90;;;14.35;;
19080;SDS011;9673;50.868;3.152;2023-09-08T07:58:24;24.58;;;14.75;;
19080;SDS011;9673;50.868;3.152;2023-09-08T08:01:30;22.48;;;14.27;;
19080;SDS011;9673;50.868;3.152;2023-09-08T08:04:38;19.80;;;13.95;;
19080;SDS011;9673;50.868;3.152;2023-09-08T08:07:45;27.23;;;14.48;;
19080;SDS011;9673;50.868;3.152;2023-09-08T08:10:53;21.75;;;14.52;;
19080;SDS011;9673;50.868;3.152;2023-09-08T08:13:59;21.40;;;14.00;;
19080;SDS011;9673;50.868;3.152;2023-09-08T08:17:06;18.10;;;12.00;;
19080;SDS011;9673;50.868;3.152;2023-09-08T08:20:14;26.88;;;13.65;;
19080;SDS011;9673;50.868;3.152;2023-09-08T08:23:23;33.25;;;15.18;;
19080;SDS011;9673;50.868;3.152;2023-09-08T08:26:29;19.40;;;13.63;;
19080;SDS011;9673;50.868;3.152;2023-09-08T08:29:38;25.63;;;11.65;;
19080;SDS011;9673;50.868;3.152;2023-09-08T08:32:45;17.63;;;11.75;;
19080;SDS011;9673;50.868;3.152;2023-09-08T08:35:53;19.88;;;11.05;;
19080;SDS011;9673;50.868;3.152;2023-09-08T08:38:59;15.40;;;8.55;;
19080;SDS011;9673;50.868;3.152;2023-09-08T08:42:07;16.35;;;8.30;;
19080;SDS011;9673;50.868;3.152;2023-09-08T08:45:15;11.52;;;7.28;;
19080;SDS011;9673;50.868;3.152;2023-09-08T08:48:24;21.20;;;9.98;;
19080;SDS011;9673;50.868;3.152;2023-09-08T08:51:34;12.90;;;7.63;;
19080;SDS011;9673;50.868;3.152;2023-09-08T08:54:42;11.63;;;6.78;;
19080;SDS011;9673;50.868;3.152;2023-09-08T08:58:02;15.10;;;8.43;;
19080;SDS011;9673;50.868;3.152;2023-09-08T09:01:10;16.00;;;7.20;;
19080;SDS011;9673;50.868;3.152;2023-09-08T09:04:18;12.95;;;8.65;;
19080;SDS011;9673;50.868;3.152;2023-09-08T09:07:26;11.65;;;7.45;;
19080;SDS011;9673;50.868;3.152;2023-09-08T09:10:33;20.80;;;9.23;;
19080;SDS011;9673;50.868;3.152;2023-09-08T09:13:40;18.52;;;7.65;;
19080;SDS011;9673;50.868;3.152;2023-09-08T09:16:46;18.33;;;8.48;;
19080;SDS011;9673;50.868;3.152;2023-09-08T09:20:00;12.95;;;8.32;;
19080;SDS011;9673;50.868;3.152;2023-09-08T09:23:27;11.32;;;5.70;;
19080;SDS011;9673;50.868;3.152;2023-09-08T09:26:34;13.75;;;7.93;;
19080;SDS011;9673;50.868;3.152;2023-09-08T09:29:45;18.80;;;8.00;;
19080;SDS011;9673;50.868;3.152;2023-09-08T09:34:02;15.18;;;7.22;;
19080;SDS011;9673;50.868;3.152;2023-09-08T09:37:10;10.30;;;7.18;;
19080;SDS011;9673;50.868;3.152;2023-09-08T09:40:18;12.02;;;6.40;;
19080;SDS011;9673;50.868;3.152;2023-09-08T09:43:25;14.65;;;7.47;;
19080;SDS011;9673;50.868;3.152;2023-09-08T09:46:35;17.08;;;7.55;;
19080;SDS011;9673;50.868;3.152;2023-09-08T09:49:42;10.90;;;6.00;;
19080;SDS011;9673;50.868;3.152;2023-09-08T09:52:49;14.85;;;6.85;;
19080;SDS011;9673;50.868;3.152;2023-09-08T09:55:57;8.98;;;6.10;;
19080;SDS011;9673;50.868;3.152;2023-09-08T09:59:05;12.98;;;8.20;;
19080;SDS011;9673;50.868;3.152;2023-09-08T10:02:20;11.32;;;7.63;;
19080;SDS011;9673;50.868;3.152;2023-09-08T10:05:27;12.55;;;6.65;;
19080;SDS011;9673;50.868;3.152;2023-09-08T10:08:34;20.58;;;8.85;;
19080;SDS011;9673;50.868;3.152;2023-09-08T10:11:44;12.73;;;7.43;;
19080;SDS011;9673;50.868;3.152;2023-09-08T10:14:54;15.48;;;7.68;;
19080;SDS011;9673;50.868;3.152;2023-09-08T10:18:03;10.43;;;6.32;;
19080;SDS011;9673;50.868;3.152;2023-09-08T10:21:11;8.13;;;6.28;;
19080;SDS011;9673;50.868;3.152;2023-09-08T10:24:21;11.35;;;7.70;;
19080;SDS011;9673;50.868;3.152;2023-09-08T10:27:31;12.35;;;6.05;;
19080;SDS011;9673;50.868;3.152;2023-09-08T10:31:31;13.07;;;6.50;;
19080;SDS011;9673;50.868;3.152;2023-09-08T10:35:31;15.23;;;6.97;;
19080;SDS011;9673;50.868;3.152;2023-09-08T10:39:31;12.55;;;6.60;;
19080;SDS011;9673;50.868;3.152;2023-09-08T10:43:09;14.82;;;8.20;;
19080;SDS011;9673;50.868;3.152;2023-09-08T10:46:21;14.15;;;7.13;;
19080;SDS011;9673;50.868;3.152;2023-09-08T10:49:28;15.40;;;7.15;;
19080;SDS011;9673;50.868;3.152;2023-09-08T10:52:44;17.50;;;8.07;;
19080;SDS011;9673;50.868;3.152;2023-09-08T10:55:52;16.88;;;9.95;;
19080;SDS011;9673;50.868;3.152;2023-09-08T10:59:03;12.15;;;7.88;;
19080;SDS011;9673;50.868;3.152;2023-09-08T11:02:13;14.05;;;9.48;;
19080;SDS011;9673;50.868;3.152;2023-09-08T11:05:39;10.20;;;7.22;;
19080;SDS011;9673;50.868;3.152;2023-09-08T11:08:47;14.10;;;8.32;;
19080;SDS011;9673;50.868;3.152;2023-09-08T11:12:00;13.35;;;6.72;;
19080;SDS011;9673;50.868;3.152;2023-09-08T11:15:10;17.02;;;7.90;;
19080;SDS011;9673;50.868;3.152;2023-09-08T11:18:16;29.40;;;8.65;;
19080;SDS011;9673;50.868;3.152;2023-09-08T11:21:24;12.73;;;7.30;;
19080;SDS011;9673;50.868;3.152;2023-09-08T11:24:31;13.18;;;6.47;;
19080;SDS011;9673;50.868;3.152;2023-09-08T11:27:39;10.20;;;5.32;;
19080;SDS011;9673;50.868;3.152;2023-09-08T11:30:47;11.55;;;5.93;;
19080;SDS011;9673;50.868;3.152;2023-09-08T11:33:55;11.88;;;6.00;;
19080;SDS011;9673;50.868;3.152;2023-09-08T11:37:05;15.35;;;6.47;;
19080;SDS011;9673;50.868;3.152;2023-09-08T11:40:14;13.70;;;6.45;;
19080;SDS011;9673;50.868;3.152;2023-09-08T11:43:21;8.60;;;5.93;;
19080;SDS011;9673;50.868;3.152;2023-09-08T11:46:29;13.07;;;6.57;;
19080;SDS011;9673;50.868;3.152;2023-09-08T11:49:36;16.17;;;6.85;;
19080;SDS011;9673;50.868;3.152;2023-09-08T11:52:43;11.80;;;5.10;;
19080;SDS011;9673;50.868;3.152;2023-09-08T11:55:51;8.63;;;4.78;;
19080;SDS011;9673;50.868;3.152;2023-09-08T11:58:58;10.15;;;4.18;;
19080;SDS011;9673;50.868;3.152;2023-09-08T12:02:06;9.93;;;3.97;;
19080;SDS011;9673;50.868;3.152;2023-09-08T12:05:12;13.27;;;4.10;;
19080;SDS011;9673;50.868;3.152;2023-09-08T12:08:20;12.60;;;4.30;;
19080;SDS011;9673;50.868;3.152;2023-09-08T12:11:31;10.88;;;3.50;;
19080;SDS011;9673;50.868;3.152;2023-09-08T12:14:42;5.78;;;3.42;;
19080;SDS011;9673;50.868;3.152;2023-09-08T12:17:53;5.88;;;4.25;;
19080;SDS011;9673;50.868;3.152;2023-09-08T12:21:02;10.52;;;4.15;;
19080;SDS011;9673;50.868;3.152;2023-09-08T12:24:10;7.70;;;4.47;;
19080;SDS011;9673;50.868;3.152;2023-09-08T12:27:18;20.48;;;4.22;;
19080;SDS011;9673;50.868;3.152;2023-09-08T12:30:25;7.72;;;5.10;;
19080;SDS011;9673;50.868;3.152;2023-09-08T12:33:38;10.63;;;4.65;;
19080;SDS011;9673;50.868;3.152;2023-09-08T12:36:44;20.63;;;4.55;;
19080;SDS011;9673;50.868;3.152;2023-09-08T12:39:50;14.50;;;4.47;;
19080;SDS011;9673;50.868;3.152;2023-09-08T12:42:57;13.98;;;4.43;;
19080;SDS011;9673;50.868;3.152;2023-09-08T12:46:16;8.63;;;3.90;;
19080;SDS011;9673;50.868;3.152;2023-09-08T12:49:25;8.13;;;4.50;;
19080;SDS011;9673;50.868;3.152;2023-09-08T12:52:31;16.45;;;4.00;;
19080;SDS011;9673;50.868;3.152;2023-09-08T12:55:38;7.05;;;3.67;;
19080;SDS011;9673;50.868;3.152;2023-09-08T12:58:48;11.95;;;3.42;;
19080;SDS011;9673;50.868;3.152;2023-09-08T13:01:56;6.65;;;3.95;;
19080;SDS011;9673;50.868;3.152;2023-09-08T13:05:04;6.93;;;4.28;;
19080;SDS011;9673;50.868;3.152;2023-09-08T13:08:11;5.80;;;3.92;;
19080;SDS011;9673;50.868;3.152;2023-09-08T13:11:19;12.40;;;5.00;;
19080;SDS011;9673;50.868;3.152;2023-09-08T13:14:26;9.65;;;5.07;;
19080;SDS011;9673;50.868;3.152;2023-09-08T13:17:33;10.23;;;5.22;;
19080;SDS011;9673;50.868;3.152;2023-09-08T13:20:41;8.57;;;3.67;;
19080;SDS011;9673;50.868;3.152;2023-09-08T13:23:48;5.53;;;3.92;;
19080;SDS011;9673;50.868;3.152;2023-09-08T13:26:54;7.50;;;4.57;;
19080;SDS011;9673;50.868;3.152;2023-09-08T13:30:54;7.90;;;4.50;;
19080;SDS011;9673;50.868;3.152;2023-09-08T13:34:53;9.48;;;4.80;;
19080;SDS011;9673;50.868;3.152;2023-09-08T13:38:53;10.15;;;4.45;;
19080;SDS011;9673;50.868;3.152;2023-09-08T13:42:01;9.70;;;4.38;;
19080;SDS011;9673;50.868;3.152;2023-09-08T13:45:08;10.70;;;4.43;;
19080;SDS011;9673;50.868;3.152;2023-09-08T13:48:16;11.20;;;4.70;;
19080;SDS011;9673;50.868;3.152;2023-09-08T13:51:24;4.35;;;3.92;;
19080;SDS011;9673;50.868;3.152;2023-09-08T13:54:32;8.95;;;4.00;;
19080;SDS011;9673;50.868;3.152;2023-09-08T13:58:17;17.77;;;4.97;;
19080;SDS011;9673;50.868;3.152;2023-09-08T14:01:24;8.60;;;4.57;;
19080;SDS011;9673;50.868;3.152;2023-09-08T14:04:45;5.40;;;4.63;;
19080;SDS011;9673;50.868;3.152;2023-09-08T14:07:54;9.60;;;5.22;;
19080;SDS011;9673;50.868;3.152;2023-09-08T14:11:21;7.15;;;4.63;;
19080;SDS011;9673;50.868;3.152;2023-09-08T14:15:23;9.95;;;4.63;;
19080;SDS011;9673;50.868;3.152;2023-09-08T14:19:23;8.40;;;4.85;;
19080;SDS011;9673;50.868;3.152;2023-09-08T14:23:23;5.32;;;4.13;;
19080;SDS011;9673;50.868;3.152;2023-09-08T14:27:23;12.88;;;4.60;;
19080;SDS011;9673;50.868;3.152;2023-09-08T14:31:22;7.53;;;3.80;;
19080;SDS011;9673;50.868;3.152;2023-09-08T14:35:22;9.70;;;4.30;;
19080;SDS011;9673;50.868;3.152;2023-09-08T14:39:23;10.25;;;4.63;;
19080;SDS011;9673;50.868;3.152;2023-09-08T14:43:23;8.30;;;4.35;;
19080;SDS011;9673;50.868;3.152;2023-09-08T14:46:30;9.82;;;4.78;;
19080;SDS011;9673;50.868;3.152;2023-09-08T14:50:30;13.65;;;5.32;;
19080;SDS011;9673;50.868;3.152;2023-09-08T14:54:30;16.35;;;5.97;;
19080;SDS011;9673;50.868;3.152;2023-09-08T14:58:29;9.15;;;4.93;;
19080;SDS011;9673;50.868;3.152;2023-09-08T15:02:29;9.77;;;5.78;;
19080;SDS011;9673;50.868;3.152;2023-09-08T15:06:28;7.32;;;6.15;;
19080;SDS011;9673;50.868;3.152;2023-09-08T15:10:28;11.10;;;6.15;;
19080;SDS011;9673;50.868;3.152;2023-09-08T15:14:09;9.07;;;6.10;;
19080;SDS011;9673;50.868;3.152;2023-09-08T15:17:15;10.23;;;6.55;;
19080;SDS011;9673;50.868;3.152;2023-09-08T15:20:22;8.63;;;5.22;;
19080;SDS011;9673;50.868;3.152;2023-09-08T15:23:29;7.93;;;6.13;;
19080;SDS011;9673;50.868;3.152;2023-09-08T15:26:37;13.02;;;5.53;;
19080;SDS011;9673;50.868;3.152;2023-09-08T15:29:43;6.55;;;5.50;;
19080;SDS011;9673;50.868;3.152;2023-09-08T15:32:50;11.52;;;5.50;;
19080;SDS011;9673;50.868;3.152;2023-09-08T15:35:57;5.65;;;4.68;;
19080;SDS011;9673;50.868;3.152;2023-09-08T15:39:04;12.20;;;5.93;;
19080;SDS011;9673;50.868;3.152;2023-09-08T15:42:12;14.27;;;6.65;;
19080;SDS011;9673;50.868;3.152;2023-09-08T15:45:20;9.15;;;6.22;;
19080;SDS011;9673;50.868;3.152;2023-09-08T15:48:27;10.55;;;5.90;;
19080;SDS011;9673;50.868;3.152;2023-09-08T15:51:33;13.65;;;6.20;;
19080;SDS011;9673;50.868;3.152;2023-09-08T15:55:33;9.88;;;5.82;;
19080;SDS011;9673;50.868;3.152;2023-09-08T15:59:25;9.45;;;6.53;;
19080;SDS011;9673;50.868;3.152;2023-09-08T16:03:22;16.30;;;6.15;;
19080;SDS011;9673;50.868;3.152;2023-09-08T16:07:22;9.27;;;6.40;;
19080;SDS011;9673;50.868;3.152;2023-09-08T16:11:20;14.43;;;6.35;;
19080;SDS011;9673;50.868;3.152;2023-09-08T16:15:21;22.08;;;6.50;;
19080;SDS011;9673;50.868;3.152;2023-09-08T16:19:20;10.80;;;6.95;;
19080;SDS011;9673;50.868;3.152;2023-09-08T16:23:21;16.88;;;6.47;;
19080;SDS011;9673;50.868;3.152;2023-09-08T16:27:20;18.02;;;7.07;;
19080;SDS011;9673;50.868;3.152;2023-09-08T16:31:21;24.63;;;6.45;;
19080;SDS011;9673;50.868;3.152;2023-09-08T16:35:24;33.05;;;6.93;;
19080;SDS011;9673;50.868;3.152;2023-09-08T16:39:24;15.27;;;7.18;;
19080;SDS011;9673;50.868;3.152;2023-09-08T16:43:23;13.68;;;7.82;;
19080;SDS011;9673;50.868;3.152;2023-09-08T16:47:24;12.82;;;7.70;;
19080;SDS011;9673;50.868;3.152;2023-09-08T16:51:20;16.65;;;8.02;;
19080;SDS011;9673;50.868;3.152;2023-09-08T16:55:19;11.30;;;7.55;;
19080;SDS011;9673;50.868;3.152;2023-09-08T16:59:18;11.65;;;7.53;;
19080;SDS011;9673;50.868;3.152;2023-09-08T17:03:19;15.95;;;8.25;;
19080;SDS011;9673;50.868;3.152;2023-09-08T17:07:18;20.73;;;9.30;;
19080;SDS011;9673;50.868;3.152;2023-09-08T17:10:43;17.45;;;11.10;;
19080;SDS011;9673;50.868;3.152;2023-09-08T17:13:52;14.50;;;8.25;;
19080;SDS011;9673;50.868;3.152;2023-09-08T17:16:59;13.90;;;9.02;;
19080;SDS011;9673;50.868;3.152;2023-09-08T17:20:08;23.48;;;10.40;;
19080;SDS011;9673;50.868;3.152;2023-09-08T17:23:15;18.55;;;10.27;;
19080;SDS011;9673;50.868;3.152;2023-09-08T17:26:22;17.73;;;11.90;;
19080;SDS011;9673;50.868;3.152;2023-09-08T17:29:29;14.13;;;9.85;;
19080;SDS011;9673;50.868;3.152;2023-09-08T17:32:36;24.00;;;12.40;;
19080;SDS011;9673;50.868;3.152;2023-09-08T17:35:45;18.77;;;10.68;;
19080;SDS011;9673;50.868;3.152;2023-09-08T17:38:53;17.85;;;10.98;;
19080;SDS011;9673;50.868;3.152;2023-09-08T17:41:59;23.85;;;12.00;;
19080;SDS011;9673;50.868;3.152;2023-09-08T17:45:06;37.80;;;12.23;;
19080;SDS011;9673;50.868;3.152;2023-09-08T17:48:14;25.98;;;9.52;;
19080;SDS011;9673;50.868;3.152;2023-09-08T17:51:22;13.82;;;10.13;;
19080;SDS011;9673;50.868;3.152;2023-09-08T17:54:28;13.32;;;9.07;;
19080;SDS011;9673;50.868;3.152;2023-09-08T17:57:35;16.30;;;10.32;;
19080;SDS011;9673;50.868;3.152;2023-09-08T18:00:41;16.33;;;9.30;;
19080;SDS011;9673;50.868;3.152;2023-09-08T18:03:50;18.08;;;12.40;;
19080;SDS011;9673;50.868;3.152;2023-09-08T18:06:59;14.07;;;9.98;;
19080;SDS011;9673;50.868;3.152;2023-09-08T18:10:07;24.73;;;12.52;;
19080;SDS011;9673;50.868;3.152;2023-09-08T18:13:14;19.25;;;13.48;;
19080;SDS011;9673;50.868;3.152;2023-09-08T18:16:22;21.77;;;13.93;;
19080;SDS011;9673;50.868;3.152;2023-09-08T18:19:29;17.65;;;11.82;;
19080;SDS011;9673;50.868;3.152;2023-09-08T18:22:41;18.73;;;12.55;;
19080;SDS011;9673;50.868;3.152;2023-09-08T18:25:48;26.30;;;15.25;;
19080;SDS011;9673;50.868;3.152;2023-09-08T18:28:54;19.75;;;13.32;;
19080;SDS011;9673;50.868;3.152;2023-09-08T18:32:01;25.27;;;14.13;;
19080;SDS011;9673;50.868;3.152;2023-09-08T18:35:08;22.23;;;15.88;;
19080;SDS011;9673;50.868;3.152;2023-09-08T18:38:16;24.42;;;14.63;;
19080;SDS011;9673;50.868;3.152;2023-09-08T18:41:22;19.30;;;14.60;;
19080;SDS011;9673;50.868;3.152;2023-09-08T18:44:29;21.17;;;14.45;;
19080;SDS011;9673;50.868;3.152;2023-09-08T18:47:35;24.23;;;15.57;;
19080;SDS011;9673;50.868;3.152;2023-09-08T18:50:41;19.98;;;14.45;;
19080;SDS011;9673;50.868;3.152;2023-09-08T18:53:49;18.77;;;13.02;;
19080;SDS011;9673;50.868;3.152;2023-09-08T18:56:56;17.92;;;14.45;;
19080;SDS011;9673;50.868;3.152;2023-09-08T19:00:03;22.65;;;14.75;;
19080;SDS011;9673;50.868;3.152;2023-09-08T19:03:10;19.38;;;15.15;;
19080;SDS011;9673;50.868;3.152;2023-09-08T19:06:18;19.83;;;14.90;;
19080;SDS011;9673;50.868;3.152;2023-09-08T19:09:26;24.07;;;17.10;;
19080;SDS011;9673;50.868;3.152;2023-09-08T19:12:32;36.40;;;19.27;;
19080;SDS011;9673;50.868;3.152;2023-09-08T19:16:31;34.00;;;19.48;;
19080;SDS011;9673;50.868;3.152;2023-09-08T19:20:30;30.90;;;18.52;;
19080;SDS011;9673;50.868;3.152;2023-09-08T19:24:31;24.75;;;17.77;;
19080;SDS011;9673;50.868;3.152;2023-09-08T19:28:30;30.40;;;18.63;;
19080;SDS011;9673;50.868;3.152;2023-09-08T19:32:29;26.92;;;19.30;;
19080;SDS011;9673;50.868;3.152;2023-09-08T19:36:28;24.97;;;17.43;;
19080;SDS011;9673;50.868;3.152;2023-09-08T19:40:29;23.90;;;17.93;;
19080;SDS011;9673;50.868;3.152;2023-09-08T19:44:31;22.53;;;16.80;;
19080;SDS011;9673;50.868;3.152;2023-09-08T19:48:31;32.00;;;21.13;;